Time;durP1;ratioP1;P1;durP2;ratioP2;P2;SDS_P1;SDS_P2;PMS_P1;PMS_P2;Temp;Humidity;BMP_temperature;BMP_pressure;BME280_temperature;BME280_humidity;BME280_pressure;Samples;Min_cycle;Max_cycle;Signal;HPM_P1;HPM_P2
2022/05/25 00:00:36;;;;;;;3.90;2.37;;;;;;;19.31;51.40;101632.75;1680514;85;21138;-47
2022/05/25 00:03:04;;;;;;;3.75;2.67;;;;;;;19.31;51.52;101636.70;1674982;85;21046;-50
2022/05/25 00:05:31;;;;;;;5.65;2.45;;;;;;;19.31;51.55;101636.70;1680765;85;21011;-50
2022/05/25 00:07:58;;;;;;;4.58;2.37;;;;;;;19.30;51.54;101635.01;1680877;85;21538;-50
2022/05/25 00:10:25;;;;;;;6.15;2.60;;;;;;;19.28;51.68;101633.36;1664911;85;21097;-47
2022/05/25 00:12:52;;;;;;;4.17;2.60;;;;;;;19.27;51.64;101639.09;1673259;85;21133;-52
2022/05/25 00:15:19;;;;;;;2.75;2.17;;;;;;;19.25;51.62;101630.38;1675881;84;21022;-49
2022/05/25 00:17:47;;;;;;;2.45;2.25;;;;;;;19.26;51.62;101633.88;1675572;85;21091;-48
2022/05/25 00:20:15;;;;;;;3.98;2.67;;;;;;;19.24;51.59;101637.92;1691487;84;21065;-48
2022/05/25 00:22:53;;;;;;;6.28;2.92;;;;;;;19.23;51.61;101641.47;1687699;84;21022;-49
2022/05/25 00:25:29;;;;;;;6.58;3.00;;;;;;;19.23;51.51;101637.50;1675603;84;21517;-50
2022/05/25 00:27:54;;;;;;;3.02;2.80;;;;;;;19.21;51.47;101639.36;1664413;85;21076;-49
2022/05/25 00:30:21;;;;;;;3.00;2.65;;;;;;;19.17;51.48;101640.87;1645561;85;21044;-48
2022/05/25 00:32:48;;;;;;;5.35;2.50;;;;;;;19.12;51.48;101635.81;1652657;85;21573;-48
2022/05/25 00:35:17;;;;;;;4.47;2.95;;;;;;;19.09;51.53;101645.16;1667606;85;21069;-49
2022/05/25 00:37:44;;;;;;;3.65;2.70;;;;;;;19.04;51.63;101641.85;1654438;85;21046;-49
2022/05/25 00:40:23;;;;;;;7.05;2.70;;;;;;;19.00;51.77;101645.55;1651485;86;21066;-48
2022/05/25 00:42:49;;;;;;;2.90;2.60;;;;;;;19.00;51.84;101645.55;1596106;87;21177;-49
2022/05/25 00:45:16;;;;;;;5.28;3.20;;;;;;;18.97;51.84;101643.05;1590282;89;21122;-50
2022/05/25 00:47:48;;;;;;;2.77;2.45;;;;;;;18.97;51.90;101648.78;1595873;88;21088;-49
2022/05/25 00:50:17;;;;;;;2.87;2.65;;;;;;;18.95;52.00;101646.22;1610912;88;21060;-48
2022/05/25 00:52:47;;;;;;;4.12;3.15;;;;;;;18.95;52.08;101647.98;1599599;88;21064;-48
2022/05/25 00:55:27;;;;;;;4.15;2.70;;;;;;;18.93;52.24;101649.38;1599829;88;21113;-49
2022/05/25 00:57:53;;;;;;;3.72;2.80;;;;;;;18.93;52.25;101657.30;1608020;88;21545;-49
2022/05/25 01:00:26;;;;;;;4.37;3.05;;;;;;;18.93;52.30;101661.25;1588177;89;21089;-49
2022/05/25 01:02:57;;;;;;;3.72;2.65;;;;;;;18.94;52.29;101653.72;1544042;92;21490;-49
2022/05/25 01:05:34;;;;;;;3.98;2.80;;;;;;;18.94;52.33;101660.31;1545830;92;21586;-48
2022/05/25 01:08:15;;;;;;;3.50;2.77;;;;;;;18.95;52.30;101660.72;1456861;96;21130;-48
2022/05/25 01:10:56;;;;;;;7.40;2.83;;;;;;;18.95;52.39;101667.31;1450278;98;21134;-48
2022/05/25 01:13:46;;;;;;;2.70;2.50;;;;;;;18.95;52.43;101665.13;1455970;96;21142;-50
2022/05/25 01:16:38;;;;;;;2.65;2.22;;;;;;;18.94;52.52;101672.17;1457319;96;21175;-50
2022/05/25 01:19:37;;;;;;;3.62;2.80;;;;;;;18.94;52.64;101667.39;1392262;102;21191;-48
2022/05/25 01:23:01;;;;;;;2.75;2.50;;;;;;;18.94;52.72;101666.91;1358833;104;21211;-48
2022/05/25 01:26:12;;;;;;;3.00;2.75;;;;;;;18.94;52.90;101673.98;1348671;104;21189;-48
2022/05/25 01:29:10;;;;;;;4.12;2.75;;;;;;;18.93;52.92;101670.48;1340780;104;21174;-48
2022/05/25 01:31:46;;;;;;;3.77;3.08;;;;;;;18.93;53.02;101674.44;1305294;109;21193;-50
2022/05/25 01:34:26;;;;;;;3.45;2.70;;;;;;;18.99;52.89;101672.86;1321573;108;21737;-48
2022/05/25 01:37:05;;;;;;;5.85;3.02;;;;;;;19.01;53.02;101665.73;1316375;109;21165;-48
2022/05/25 01:39:36;;;;;;;2.85;2.65;;;;;;;19.02;53.06;101664.80;1357513;103;21669;-48
2022/05/25 01:42:22;;;;;;;6.10;3.20;;;;;;;19.03;53.23;101665.66;1386648;103;21175;-48
2022/05/25 01:44:52;;;;;;;4.20;2.60;;;;;;;19.04;53.46;101667.39;1383341;104;21168;-49
2022/05/25 01:47:20;;;;;;;4.87;3.55;;;;;;;19.03;53.50;101671.80;1385837;102;21173;-49
2022/05/25 01:49:54;;;;;;;4.12;2.62;;;;;;;19.04;53.48;101680.59;1385909;104;21279;-52
2022/05/25 01:52:27;;;;;;;5.47;3.17;;;;;;;19.04;53.38;101683.22;1346637;107;21141;-49
2022/05/25 01:54:57;;;;;;;3.45;2.87;;;;;;;19.06;53.24;101687.48;1347004;107;21149;-48
2022/05/25 01:57:27;;;;;;;4.00;2.50;;;;;;;19.05;53.20;101682.28;1351997;105;21607;-48
2022/05/25 01:59:54;;;;;;;2.62;2.42;;;;;;;19.06;53.11;101684.84;1376690;104;21182;-49
2022/05/25 02:05:11;;;;;;;3.90;3.50;;;;;;;19.03;53.05;101690.27;1423922;99;21115;-47
2022/05/25 02:07:55;;;;;;;4.97;2.87;;;;;;;19.00;53.05;101691.70;1449212;97;21132;-51
2022/05/25 02:11:00;;;;;;;5.72;3.05;;;;;;;18.94;52.95;101693.28;1503966;95;21155;-47
2022/05/25 02:13:38;;;;;;;4.50;3.75;;;;;;;18.90;53.04;101690.38;1503645;93;21122;-47
2022/05/25 02:16:53;;;;;;;4.65;3.00;;;;;;;18.88;53.15;101689.58;1510149;95;21614;-48
2022/05/25 02:19:39;;;;;;;4.33;2.98;;;;;;;18.88;53.09;101693.53;1501719;95;21133;-49
2022/05/25 02:22:21;;;;;;;3.20;2.90;;;;;;;18.89;53.03;101697.91;1510441;95;21120;-49
2022/05/25 02:25:17;;;;;;;3.80;3.42;;;;;;;18.90;53.06;101702.23;1510402;95;21134;-48
2022/05/25 02:27:59;;;;;;;4.65;3.10;;;;;;;18.90;53.10;101710.15;1519112;94;21103;-49
2022/05/25 02:30:27;;;;;;;4.70;3.10;;;;;;;18.95;53.08;101712.61;1507394;94;21135;-50
2022/05/25 02:33:05;;;;;;;3.85;3.33;;;;;;;18.95;53.14;101710.83;1474850;93;21093;-49
2022/05/25 02:35:33;;;;;;;6.53;3.40;;;;;;;18.98;53.15;101721.23;1509721;93;21597;-49
2022/05/25 02:38:02;;;;;;;4.87;3.60;;;;;;;18.96;53.22;101720.45;1510719;93;21127;-49
2022/05/25 02:40:29;;;;;;;3.37;3.08;;;;;;;18.95;53.14;101729.30;1519846;94;21112;-49
2022/05/25 02:42:56;;;;;;;3.47;3.08;;;;;;;18.94;53.20;101730.69;1527046;94;21108;-49
2022/05/25 02:45:23;;;;;;;3.67;3.15;;;;;;;18.95;53.18;101725.80;1527385;94;21080;-50
2022/05/25 02:47:51;;;;;;;4.60;3.45;;;;;;;18.96;53.08;101733.64;1527098;94;21088;-51
2022/05/25 02:50:18;;;;;;;4.17;3.37;;;;;;;18.99;53.06;101738.80;1527491;92;21572;-48
2022/05/25 02:52:45;;;;;;;3.40;3.10;;;;;;;19.03;53.05;101732.93;1525137;92;21617;-47
2022/05/25 02:55:12;;;;;;;3.15;2.92;;;;;;;19.04;53.07;101734.17;1551939;92;21101;-48
2022/05/25 02:57:40;;;;;;;3.98;3.37;;;;;;;19.07;53.02;101734.06;1551924;92;21094;-47
2022/05/25 03:00:09;;;;;;;3.77;3.30;;;;;;;19.07;53.00;101732.75;1551741;92;21138;-48
2022/05/25 03:02:36;;;;;;;5.17;3.50;;;;;;;19.09;53.14;101736.18;1551996;92;21510;-49
2022/05/25 03:05:05;;;;;;;3.65;3.15;;;;;;;19.12;53.21;101735.20;1547088;92;21107;-50
2022/05/25 03:07:34;;;;;;;3.60;3.02;;;;;;;19.16;53.28;101736.34;1599887;87;21027;-48
2022/05/25 03:10:03;;;;;;;3.42;3.05;;;;;;;19.21;53.25;101734.34;1653388;86;21043;-52
2022/05/25 03:12:30;;;;;;;5.08;2.92;;;;;;;19.23;53.14;101736.45;1648659;87;21055;-47
2022/05/25 03:14:57;;;;;;;5.12;3.22;;;;;;;19.23;53.09;101743.05;1650725;86;21030;-48
2022/05/25 03:17:24;;;;;;;4.40;2.92;;;;;;;19.24;53.20;101740.83;1660234;86;21519;-49
2022/05/25 03:19:54;;;;;;;7.60;2.70;;;;;;;19.28;53.27;101749.02;1659859;86;21046;-48
2022/05/25 03:22:21;;;;;;;3.08;2.70;;;;;;;19.33;53.29;101744.41;1592570;89;21075;-48
2022/05/25 03:24:49;;;;;;;3.45;3.10;;;;;;;19.41;53.19;101748.91;1608505;89;21098;-49
2022/05/25 03:27:16;;;;;;;4.72;2.80;;;;;;;19.49;53.22;101747.28;1608060;89;21127;-48
2022/05/25 03:29:43;;;;;;;3.52;2.90;;;;;;;19.59;53.39;101747.73;1608415;89;21059;-52
2022/05/25 03:32:11;;;;;;;5.40;2.87;;;;;;;19.75;53.65;101748.77;1608070;89;21603;-50
2022/05/25 03:34:39;;;;;;;3.33;2.55;;;;;;;19.98;53.14;101747.30;1608222;89;21077;-50
2022/05/25 03:37:06;;;;;;;2.67;2.47;;;;;;;20.21;52.57;101742.73;1596904;89;21558;-50
2022/05/25 03:39:34;;;;;;;2.30;2.10;;;;;;;20.53;52.66;101750.47;1596241;89;21059;-49
2022/05/25 03:42:07;;;;;;;2.85;2.30;;;;;;;20.99;51.62;101748.66;1601671;89;21094;-48
2022/05/25 03:44:35;;;;;;;4.25;2.52;;;;;;;21.51;50.21;101748.73;1548368;91;21092;-49
2022/05/25 03:47:03;;;;;;;3.45;2.33;;;;;;;21.91;48.92;101752.36;1549293;92;21067;-49
2022/05/25 03:49:31;;;;;;;3.08;2.70;;;;;;;22.13;48.13;101754.27;1548163;91;21604;-48
2022/05/25 03:51:58;;;;;;;2.70;2.50;;;;;;;22.23;47.86;101748.86;1548231;91;21103;-50
2022/05/25 03:54:24;;;;;;;2.27;2.00;;;;;;;22.34;47.95;101749.11;1548780;91;21088;-47
2022/05/25 03:56:52;;;;;;;2.98;2.10;;;;;;;22.53;47.74;101747.16;1548730;91;21104;-52
2022/05/25 03:59:19;;;;;;;2.52;2.33;;;;;;;22.79;47.42;101750.19;1548921;91;21585;-49
2022/05/25 04:01:46;;;;;;;3.08;2.12;;;;;;;23.11;46.69;101750.52;1548670;91;21063;-52
2022/05/25 04:04:12;;;;;;;2.17;1.75;;;;;;;23.38;45.64;101762.22;1548846;91;21630;-49
2022/05/25 04:06:39;;;;;;;2.22;1.85;;;;;;;23.49;45.18;101761.12;1549670;91;21529;-49
2022/05/25 04:09:09;;;;;;;2.55;1.82;;;;;;;23.48;45.04;101762.05;1549088;92;21070;-49
2022/05/25 04:11:35;;;;;;;3.45;2.08;;;;;;;23.41;44.96;101760.72;1551000;91;21094;-49
2022/05/25 04:14:02;;;;;;;2.45;1.70;;;;;;;23.29;45.13;101766.70;1548490;91;21070;-48
2022/05/25 04:16:31;;;;;;;1.90;1.80;;;;;;;23.14;45.30;101760.97;1548060;91;21080;-49
2022/05/25 04:18:59;;;;;;;3.10;2.10;;;;;;;22.99;45.54;101757.40;1548123;91;21078;-49
2022/05/25 04:21:25;;;;;;;5.00;2.10;;;;;;;22.84;45.86;101757.40;1549063;92;21092;-48
2022/05/25 04:23:52;;;;;;;2.67;1.82;;;;;;;22.70;46.21;101758.66;1550132;91;21094;-48
2022/05/25 04:26:18;;;;;;;1.95;1.85;;;;;;;22.57;46.52;101756.66;1607809;86;21066;-49
2022/05/25 04:28:45;;;;;;;5.58;1.90;;;;;;;22.46;46.84;101763.02;1620428;86;21537;-48
2022/05/25 04:31:12;;;;;;;1.95;1.72;;;;;;;22.36;47.14;101764.46;1619629;86;21041;-49
2022/05/25 04:33:40;;;;;;;1.87;1.77;;;;;;;22.30;47.56;101770.10;1619745;86;21593;-48
2022/05/25 04:36:07;;;;;;;2.08;1.77;;;;;;;22.25;47.86;101773.49;1615477;86;21102;-51
2022/05/25 04:38:34;;;;;;;1.70;1.60;;;;;;;22.24;47.85;101770.44;1620467;86;21511;-50
2022/05/25 04:41:01;;;;;;;1.50;1.40;;;;;;;22.23;47.76;101768.74;1647373;85;21000;-50
2022/05/25 04:43:28;;;;;;;2.87;1.42;;;;;;;22.22;47.90;101774.97;1688046;85;21153;-51
2022/05/25 04:45:55;;;;;;;2.30;1.62;;;;;;;22.23;47.76;101776.70;1704141;84;21062;-50
2022/05/25 04:48:25;;;;;;;3.27;1.55;;;;;;;22.25;47.70;101784.56;1674934;84;20992;-54
2022/05/25 04:50:56;;;;;;;2.98;1.60;;;;;;;22.25;47.77;101781.45;1680609;85;21012;-49
2022/05/25 04:53:23;;;;;;;1.50;1.40;;;;;;;22.29;47.57;101789.63;1671550;84;22412;-48
2022/05/25 04:58:46;;;;;;;2.75;1.98;;;;;;;22.38;47.40;101799.70;1690749;83;21127;-48
2022/05/25 05:01:14;;;;;;;3.22;2.20;;;;;;;22.44;47.69;101801.20;1691292;85;21009;-49
2022/05/25 05:03:41;;;;;;;2.33;2.12;;;;;;;22.48;48.03;101799.59;1690924;84;21051;-50
2022/05/25 05:06:09;;;;;;;3.15;1.85;;;;;;;22.53;47.96;101800.21;1689447;83;21093;-49
2022/05/25 05:08:36;;;;;;;2.33;2.12;;;;;;;22.62;47.89;101799.75;1692508;83;21114;-48
2022/05/25 05:11:18;;;;;;;3.37;2.55;;;;;;;22.76;47.73;101805.61;1696268;83;21081;-50
2022/05/25 05:13:45;;;;;;;7.03;2.70;;;;;;;22.95;47.23;101804.11;1644764;85;21060;-47
2022/05/25 05:16:15;;;;;;;4.22;2.30;;;;;;;23.20;46.55;101812.39;1686730;85;21522;-51
2022/05/25 05:18:42;;;;;;;3.75;2.20;;;;;;;23.48;45.98;101816.52;1688230;85;21046;-49
2022/05/25 05:21:28;;;;;;;2.50;2.00;;;;;;;23.78;45.52;101816.02;1688126;85;21081;-48
2022/05/25 05:23:55;;;;;;;5.10;2.12;;;;;;;24.15;44.86;101816.86;1687634;84;21057;-49
2022/05/25 05:26:22;;;;;;;3.27;2.27;;;;;;;24.50;44.12;101813.37;1673007;84;21108;-49
2022/05/25 05:28:53;;;;;;;3.15;2.10;;;;;;;24.79;43.46;101811.55;1680393;85;21077;-48
2022/05/25 05:31:18;;;;;;;3.52;2.30;;;;;;;25.01;42.92;101807.86;1680459;84;21518;-51
2022/05/25 05:33:45;;;;;;;3.27;2.25;;;;;;;25.19;42.61;101802.66;1664442;85;21560;-53
2022/05/25 05:36:22;;;;;;;2.92;2.20;;;;;;;25.34;42.38;101807.45;1682644;84;21067;-49
2022/05/25 05:39:05;;;;;;;2.72;2.40;;;;;;;25.42;42.36;101812.68;1698765;83;21086;-50
2022/05/25 05:41:49;;;;;;;3.33;2.50;;;;;;;25.62;41.93;101828.18;1617826;88;21583;-51
2022/05/25 05:44:19;;;;;;;2.90;2.00;;;;;;;25.70;41.55;101825.84;1550559;91;21141;-49
2022/05/25 05:46:46;;;;;;;3.50;2.05;;;;;;;25.70;41.55;101825.84;1546255;91;21117;-48
2022/05/25 05:49:12;;;;;;;3.10;2.27;;;;;;;25.72;41.42;101821.27;1534225;91;21046;-48
2022/05/25 05:51:41;;;;;;;2.20;2.00;;;;;;;25.70;40.82;101818.31;1541265;91;21109;-50
2022/05/25 05:54:08;;;;;;;2.85;2.30;;;;;;;25.74;41.05;101831.81;1541836;91;21086;-49
2022/05/25 05:56:35;;;;;;;2.77;2.22;;;;;;;25.78;41.03;101826.17;1541715;92;21567;-51
2022/05/25 05:59:02;;;;;;;2.22;2.02;;;;;;;25.78;41.03;101826.17;1527404;91;21119;-48
2022/05/25 06:01:30;;;;;;;3.85;2.10;;;;;;;25.93;40.77;101823.41;1533318;91;21097;-48
2022/05/25 06:03:57;;;;;;;3.85;1.90;;;;;;;26.15;40.52;101830.36;1539556;91;21127;-49
2022/05/25 06:06:24;;;;;;;1.87;1.50;;;;;;;26.38;40.14;101824.23;1527034;92;21063;-50
2022/05/25 06:08:51;;;;;;;2.22;1.70;;;;;;;26.60;39.79;101822.59;1527494;92;21647;-53
2022/05/25 06:11:18;;;;;;;3.17;1.85;;;;;;;26.82;39.52;101831.77;1541291;92;21235;-50
2022/05/25 06:13:47;;;;;;;2.10;1.90;;;;;;;27.01;39.38;101830.33;1538116;92;21127;-48
2022/05/25 06:21:46;;;;;;;1.77;1.67;;;;;;;27.56;38.82;101843.61;1543292;90;21092;-48
2022/05/25 06:24:13;;;;;;;1.80;1.37;;;;;;;27.78;38.31;101847.72;1545639;91;21116;-47
2022/05/25 06:26:39;;;;;;;2.58;1.27;;;;;;;27.92;38.03;101847.03;1555159;90;21582;-46
2022/05/25 06:29:07;;;;;;;1.90;1.60;;;;;;;28.01;37.66;101850.83;1550109;91;21117;-50
2022/05/25 06:31:36;;;;;;;3.80;1.70;;;;;;;28.02;37.48;101845.38;1550832;92;21141;-49
2022/05/25 06:34:02;;;;;;;2.70;1.90;;;;;;;27.97;37.64;101842.67;1610263;87;21127;-47
2022/05/25 06:36:29;;;;;;;2.27;1.40;;;;;;;27.86;37.88;101845.31;1607730;87;21236;-48
2022/05/25 06:38:57;;;;;;;1.47;1.37;;;;;;;27.73;38.16;101840.52;1616063;86;21612;-48
2022/05/25 06:41:24;;;;;;;3.42;1.45;;;;;;;27.63;38.28;101849.73;1676293;84;21054;-49
2022/05/25 06:43:51;;;;;;;1.40;1.22;;;;;;;27.54;38.35;101842.88;1689237;83;21067;-51
2022/05/25 06:46:19;;;;;;;2.58;1.90;;;;;;;27.42;38.69;101851.82;1657382;84;21143;-51
2022/05/25 06:48:49;;;;;;;1.40;1.30;;;;;;;27.30;38.99;101856.23;1678418;84;21024;-48
2022/05/25 06:51:20;;;;;;;;;;;;;;;27.20;39.41;101856.55;1642258;87;21071;-48
2022/05/25 06:53:49;;;;;;;1.25;1.15;;;;;;;27.14;39.56;101861.84;1632166;87;20120;-50
2022/05/25 06:56:17;;;;;;;1.85;1.40;;;;;;;27.15;39.72;101871.58;1633055;87;21063;-48
2022/05/25 06:58:44;;;;;;;3.70;1.50;;;;;;;27.22;39.71;101871.48;1633159;87;21114;-48
2022/05/25 07:01:11;;;;;;;2.60;1.37;;;;;;;27.27;39.72;101862.66;1633558;87;21102;-50
2022/05/25 07:03:40;;;;;;;3.08;1.80;;;;;;;27.34;39.69;101869.30;1632452;87;21615;-47
2022/05/25 07:06:09;;;;;;;2.47;1.37;;;;;;;27.44;39.55;101865.45;1632843;87;21113;-46
2022/05/25 07:08:37;;;;;;;1.60;1.20;;;;;;;27.58;39.42;101868.41;1633392;87;21102;-48
2022/05/25 07:11:04;;;;;;;1.77;1.25;;;;;;;27.74;39.25;101863.64;1632812;87;21063;-51
2022/05/25 07:13:32;;;;;;;1.17;1.10;;;;;;;27.94;38.89;101866.49;1631918;87;21055;-49
2022/05/25 07:16:02;;;;;;;2.42;1.55;;;;;;;28.13;38.43;101868.63;1632108;87;21063;-47
2022/05/25 07:18:29;;;;;;;1.85;1.55;;;;;;;28.27;38.18;101871.08;1628805;87;21074;-47
2022/05/25 07:21:01;;;;;;;1.92;1.40;;;;;;;28.32;38.12;101870.22;1633702;87;21075;-46
2022/05/25 07:23:28;;;;;;;3.02;1.47;;;;;;;28.29;38.28;101874.49;1633587;87;21575;-47
2022/05/25 07:25:55;;;;;;;2.30;1.32;;;;;;;28.24;38.40;101873.13;1633338;87;21063;-47
2022/05/25 07:28:21;;;;;;;1.40;1.27;;;;;;;28.16;38.60;101875.07;1631972;87;21496;-49
2022/05/25 07:30:50;;;;;;;2.47;1.10;;;;;;;28.07;38.79;101882.45;1632101;87;21142;-46
2022/05/25 07:33:17;;;;;;;1.90;1.30;;;;;;;27.97;38.78;101881.46;1632290;87;21535;-46
2022/05/25 07:35:43;;;;;;;1.42;1.30;;;;;;;27.91;38.85;101883.24;1632380;87;21094;-47
2022/05/25 07:38:10;;;;;;;1.40;1.25;;;;;;;27.79;39.09;101884.18;1632806;87;21066;-54
2022/05/25 07:40:39;;;;;;;2.65;1.60;;;;;;;27.64;39.35;101886.66;1632298;87;21050;-53
2022/05/25 07:43:13;;;;;;;2.33;1.40;;;;;;;27.46;39.69;101886.70;1633368;87;21062;-50
2022/05/25 07:45:39;;;;;;;2.85;1.60;;;;;;;27.23;40.14;101893.25;1630366;87;21116;-48
2022/05/25 07:48:08;;;;;;;2.08;1.40;;;;;;;27.01;40.37;101901.13;1638695;87;21574;-53
2022/05/25 07:50:35;;;;;;;1.92;1.35;;;;;;;26.82;40.89;101904.73;1658645;85;21074;-47
2022/05/25 07:53:03;;;;;;;3.20;1.20;;;;;;;26.63;41.34;101905.63;1680856;85;21060;-49
2022/05/25 07:55:29;;;;;;;1.50;1.40;;;;;;;26.45;41.73;101899.78;1664598;84;21018;-49
2022/05/25 07:57:56;;;;;;;3.42;1.60;;;;;;;26.30;42.15;101907.98;1674011;84;21094;-48
2022/05/25 08:00:25;;;;;;;2.27;1.45;;;;;;;26.16;42.54;101905.41;1687868;84;21021;-49
2022/05/25 08:05:43;;;;;;;2.47;1.55;;;;;;;25.95;43.22;101901.50;1688291;84;21530;-49
2022/05/25 08:08:14;;;;;;;2.77;1.85;;;;;;;25.83;43.44;101905.39;1687976;83;21091;-48
2022/05/25 08:10:43;;;;;;;1.60;1.50;;;;;;;25.74;43.80;101912.66;1600719;88;21238;-48
2022/05/25 08:13:14;;;;;;;2.98;1.50;;;;;;;25.66;44.36;101909.66;1603741;87;21119;-48
2022/05/25 08:15:43;;;;;;;2.05;1.70;;;;;;;25.63;44.58;101905.88;1599382;87;21065;-50
2022/05/25 08:18:13;;;;;;;2.70;1.65;;;;;;;25.62;44.86;101914.81;1616106;87;21075;-49
2022/05/25 08:20:42;;;;;;;4.97;1.45;;;;;;;25.62;44.86;101914.81;1596877;87;21036;-52
2022/05/25 08:23:12;;;;;;;2.40;1.57;;;;;;;25.62;44.79;101910.81;1606231;87;21056;-47
2022/05/25 08:25:40;;;;;;;4.10;1.73;;;;;;;25.63;45.09;101913.88;1624826;87;21073;-48
2022/05/25 08:28:07;;;;;;;3.47;1.70;;;;;;;25.64;45.27;101919.56;1573772;89;21654;-50
2022/05/25 08:30:35;;;;;;;1.80;1.50;;;;;;;25.61;45.11;101919.78;1586009;89;21083;-49
2022/05/25 08:33:03;;;;;;;3.27;1.50;;;;;;;25.61;45.31;101927.78;1587505;88;21062;-50
2022/05/25 08:35:31;;;;;;;2.20;1.45;;;;;;;25.53;45.29;101930.56;1584674;88;21203;-48
2022/05/25 08:37:59;;;;;;;2.33;1.92;;;;;;;25.53;45.29;101930.56;1594726;88;21081;-50
2022/05/25 08:40:27;;;;;;;2.02;1.67;;;;;;;25.47;45.50;101927.80;1588962;89;21585;-49
2022/05/25 08:43:08;;;;;;;1.95;1.45;;;;;;;25.42;45.62;101927.27;1560876;89;21542;-49
2022/05/25 08:45:43;;;;;;;4.28;1.30;;;;;;;25.36;45.63;101930.30;1530423;90;21152;-49
2022/05/25 08:48:11;;;;;;;1.50;1.35;;;;;;;25.36;45.63;101930.30;1527140;92;21119;-49
2022/05/25 08:50:39;;;;;;;2.08;1.40;;;;;;;25.29;45.94;101919.64;1534950;92;21681;-49
2022/05/25 08:53:09;;;;;;;2.15;1.20;;;;;;;25.31;46.17;101928.86;1533519;92;21134;-47
2022/05/25 08:56:26;;;;;;;1.42;1.30;;;;;;;25.29;46.38;101934.30;1558129;91;21143;-47
2022/05/25 08:59:07;;;;;;;2.40;1.32;;;;;;;25.28;46.39;101932.60;1562531;90;21641;-49
2022/05/25 09:01:48;;;;;;;1.65;0.95;;;;;;;25.27;46.46;101932.68;1551637;91;21057;-48
2022/05/25 09:04:44;;;;;;;2.00;1.25;;;;;;;25.25;46.52;101937.25;1560298;91;21081;-47
2022/05/25 09:07:44;;;;;;;2.20;1.10;;;;;;;25.23;46.58;101932.03;1556301;91;21661;-48
2022/05/25 09:10:13;;;;;;;3.12;1.37;;;;;;;25.21;46.79;101922.42;1539764;92;21135;-47
2022/05/25 09:12:55;;;;;;;1.25;1.02;;;;;;;25.20;46.96;101933.58;1541684;91;21132;-49
2022/05/25 09:15:34;;;;;;;1.80;1.00;;;;;;;25.17;47.01;101933.75;1530905;92;21140;-50
2022/05/25 09:18:10;;;;;;;1.20;0.90;;;;;;;25.17;47.01;101933.75;1510923;92;21236;-52
2022/05/25 09:20:45;;;;;;;2.40;1.15;;;;;;;25.16;47.10;101936.06;1555606;90;21648;-47
2022/05/25 09:23:14;;;;;;;1.07;0.93;;;;;;;25.14;47.07;101936.63;1594383;87;21109;-49
2022/05/25 09:25:41;;;;;;;2.12;1.00;;;;;;;25.11;47.19;101943.47;1637212;87;21561;-47
2022/05/25 09:28:19;;;;;;;0.82;0.65;;;;;;;25.10;47.31;101940.41;1608773;88;21050;-50
2022/05/25 09:30:50;;;;;;;0.93;0.90;;;;;;;25.09;47.67;101936.52;1606316;89;21096;-52
2022/05/25 09:33:46;;;;;;;1.20;1.07;;;;;;;25.08;47.38;101935.66;1584836;89;21636;-49
2022/05/25 09:36:21;;;;;;;1.00;0.75;;;;;;;25.06;47.38;101934.91;1598421;89;21061;-49
2022/05/25 09:39:16;;;;;;;0.98;0.93;;;;;;;25.06;47.33;101942.89;1604113;89;21596;-48
2022/05/25 09:41:44;;;;;;;1.25;0.80;;;;;;;25.05;47.26;101941.20;1606006;89;21559;-49
2022/05/25 09:44:18;;;;;;;1.02;0.98;;;;;;;25.05;47.21;101943.86;1606156;89;21053;-47
2022/05/25 09:46:59;;;;;;;2.20;1.02;;;;;;;25.06;47.59;101941.56;1632316;84;21581;-47
2022/05/25 09:49:44;;;;;;;2.62;0.95;;;;;;;25.06;47.64;101930.08;1537648;92;21068;-47
2022/05/25 09:52:43;;;;;;;1.70;1.35;;;;;;;25.06;47.64;101930.08;1535757;92;21070;-49
2022/05/25 09:55:23;;;;;;;2.10;1.30;;;;;;;25.11;47.53;101934.15;1541954;92;21080;-49
2022/05/25 09:58:08;;;;;;;4.42;1.00;;;;;;;25.14;47.50;101929.97;1487794;95;21079;-47
2022/05/25 10:00:40;;;;;;;1.65;1.10;;;;;;;25.17;47.50;101932.42;1488234;95;21122;-46
2022/05/25 10:03:15;;;;;;;2.33;1.07;;;;;;;25.20;47.50;101929.58;1487652;95;21104;-50
2022/05/25 10:05:57;;;;;;;1.77;1.22;;;;;;;25.22;47.38;101930.34;1486140;95;21684;-50
2022/05/25 10:08:39;;;;;;;1.60;1.20;;;;;;;25.25;47.42;101931.92;1478516;95;21592;-49
2022/05/25 10:11:28;;;;;;;2.50;1.20;;;;;;;25.25;47.55;101934.59;1481104;94;21117;-47
2022/05/25 10:14:19;;;;;;;1.80;1.20;;;;;;;25.22;47.69;101934.33;1488979;95;21677;-47
2022/05/25 10:16:47;;;;;;;1.45;1.00;;;;;;;25.21;47.74;101933.94;1481131;94;21261;-50
2022/05/25 10:19:17;;;;;;;4.95;1.42;;;;;;;25.23;47.77;101937.36;1497163;94;21558;-49
2022/05/25 10:21:58;;;;;;;3.17;1.45;;;;;;;25.24;47.68;101926.23;1487890;95;21064;-47
2022/05/25 10:24:41;;;;;;;3.30;1.30;;;;;;;25.26;47.57;101926.52;1487077;95;21107;-49
2022/05/25 10:27:24;;;;;;;2.25;1.30;;;;;;;25.29;47.47;101932.97;1494779;95;21106;-49
2022/05/25 10:38:30;;;;;;;2.08;1.50;;;;;;;25.28;47.55;101921.09;1467616;96;21081;-48
2022/05/25 10:41:37;;;;;;;4.17;1.90;;;;;;;25.26;47.64;101930.52;1468428;96;21256;-47
2022/05/25 10:43:30;;;;;;;2.40;1.50;;;;;;;25.26;47.52;101925.19;1451399;96;21149;-51
2022/05/25 10:46:00;;;;;;;2.95;1.37;;;;;;;25.27;47.44;101924.69;1523012;90;21621;-47
2022/05/25 10:48:56;;;;;;;1.75;1.20;;;;;;;25.26;47.48;101923.86;1572509;90;21115;-49
2022/05/25 10:51:44;;;;;;;1.98;1.50;;;;;;;25.28;47.48;101927.28;1601026;89;21096;-48
2022/05/25 10:57:22;;;;;;;4.28;1.50;;;;;;;25.29;47.48;101925.44;1613054;87;21112;-47
2022/05/25 11:00:13;;;;;;;2.15;1.57;;;;;;;25.29;47.48;101925.44;1622372;87;21107;-47
2022/05/25 11:03:16;;;;;;;2.75;1.75;;;;;;;25.31;47.67;101920.40;1603369;88;21039;-48
2022/05/25 11:06:02;;;;;;;1.67;1.42;;;;;;;25.30;47.73;101925.37;1605440;88;21045;-50
2022/05/25 11:09:10;;;;;;;1.87;1.62;;;;;;;25.26;47.75;101924.33;1608365;87;21127;-49
2022/05/25 11:11:45;;;;;;;1.85;1.50;;;;;;;25.24;47.67;101917.77;1603617;87;21128;-53
2022/05/25 11:14:36;;;;;;;1.60;1.50;;;;;;;25.24;47.52;101922.23;1640119;85;21046;-49
2022/05/25 11:17:36;;;;;;;5.12;1.60;;;;;;;25.24;47.55;101925.77;1657195;85;21041;-49
2022/05/25 11:20:21;;;;;;;2.72;1.62;;;;;;;25.31;47.46;101925.73;1646470;85;21072;-50
2022/05/25 11:23:19;;;;;;;5.22;1.70;;;;;;;25.37;47.33;101920.00;1649969;85;21063;-50
2022/05/25 11:25:57;;;;;;;4.33;1.75;;;;;;;25.38;47.38;101926.19;1655339;85;21063;-49
2022/05/25 11:28:45;;;;;;;4.65;1.87;;;;;;;25.41;47.15;101926.88;1648724;86;21063;-50
2022/05/25 11:31:43;;;;;;;2.83;1.50;;;;;;;25.47;46.68;101921.14;1652797;84;21096;-49
2022/05/25 11:34:23;;;;;;;3.35;1.62;;;;;;;25.47;46.68;101921.14;1578024;89;21050;-52
2022/05/25 11:37:04;;;;;;;3.15;1.50;;;;;;;25.52;46.63;101915.52;1488584;94;21646;-46
2022/05/25 11:39:49;;;;;;;2.67;1.62;;;;;;;25.54;46.61;101917.60;1496305;93;21507;-51
2022/05/25 11:42:45;;;;;;;2.17;1.37;;;;;;;25.55;46.18;101909.53;1491466;93;21579;-51
2022/05/25 11:45:42;;;;;;;3.95;1.87;;;;;;;25.55;45.94;101920.19;1493502;93;21090;-49
2022/05/25 11:48:47;;;;;;;1.52;1.30;;;;;;;25.51;45.81;101910.66;1490384;95;21213;-49
2022/05/25 11:51:24;;;;;;;3.10;1.60;;;;;;;25.51;45.81;101912.48;1486613;95;21564;-49
2022/05/25 11:54:17;;;;;;;1.87;1.70;;;;;;;25.51;45.81;101912.48;1487122;95;21156;-47
2022/05/25 11:57:23;;;;;;;4.60;1.60;;;;;;;25.49;45.83;101917.06;1495583;95;21113;-48
2022/05/25 12:00:11;;;;;;;3.05;1.75;;;;;;;25.46;45.92;101914.59;1462016;96;21098;-48
2022/05/25 12:03:04;;;;;;;3.22;1.52;;;;;;;25.44;45.78;101917.36;1482554;95;21108;-50
2022/05/25 12:06:08;;;;;;;3.87;1.75;;;;;;;25.44;45.86;101921.36;1491147;95;21673;-46
2022/05/25 12:09:13;;;;;;;3.30;1.72;;;;;;;25.46;45.85;101926.11;1488296;95;21586;-46
2022/05/25 12:12:01;;;;;;;5.90;2.00;;;;;;;25.39;45.69;101924.75;1553158;88;21206;-48
2022/05/25 12:14:46;;;;;;;6.12;1.80;;;;;;;25.39;45.69;101924.75;1657569;83;21031;-50
2022/05/25 12:17:35;;;;;;;2.58;1.85;;;;;;;25.40;45.18;101933.14;1704231;83;21094;-48
2022/05/25 12:20:03;;;;;;;5.47;1.72;;;;;;;25.40;45.18;101933.14;1681265;85;21051;-48
2022/05/25 12:22:36;;;;;;;3.27;1.70;;;;;;;25.39;45.32;101935.41;1683055;85;21014;-49